sensor_id;sensor_type;location;lat;lon;timestamp;pressure;altitude;pressure_sealevel;temperature;humidity
37291;BME280;23175;-33.706;151.094;2023-08-06T00:01:36;101531.43;;;13.97;48.06
37291;BME280;23175;-33.706;151.094;2023-08-06T00:04:05;101534.98;;;15.50;45.72
37291;BME280;23175;-33.706;151.094;2023-08-06T00:06:35;101533.21;;;14.68;47.13
37291;BME280;23175;-33.706;151.094;2023-08-06T00:09:06;101540.36;;;10.00;54.37
37291;BME280;23175;-33.706;151.094;2023-08-06T00:11:36;101537.37;;;12.82;50.44
37291;BME280;23175;-33.706;151.094;2023-08-06T00:14:06;101536.61;;;12.28;52.03
37291;BME280;23175;-33.706;151.094;2023-08-06T00:16:37;101535.71;;;11.04;52.58
37291;BME280;23175;-33.706;151.094;2023-08-06T00:19:06;101531.90;;;13.01;49.03
37291;BME280;23175;-33.706;151.094;2023-08-06T00:21:37;101534.49;;;12.15;51.26
37291;BME280;23175;-33.706;151.094;2023-08-06T00:24:07;101531.22;;;14.99;46.90
37291;BME280;23175;-33.706;151.094;2023-08-06T00:26:38;101529.32;;;12.11;50.01
37291;BME280;23175;-33.706;151.094;2023-08-06T00:29:08;101531.03;;;11.46;51.19
37291;BME280;23175;-33.706;151.094;2023-08-06T00:31:38;101526.88;;;11.62;50.83
37291;BME280;23175;-33.706;151.094;2023-08-06T00:34:08;101522.73;;;14.54;46.36
37291;BME280;23175;-33.706;151.094;2023-08-06T00:36:38;101528.52;;;10.55;53.66
37291;BME280;23175;-33.706;151.094;2023-08-06T00:39:08;101522.25;;;14.28;46.99
37291;BME280;23175;-33.706;151.094;2023-08-06T00:41:38;101528.15;;;11.55;51.70
37291;BME280;23175;-33.706;151.094;2023-08-06T00:44:08;101526.61;;;11.41;51.37
37291;BME280;23175;-33.706;151.094;2023-08-06T00:46:38;101525.19;;;13.82;47.87
37291;BME280;23175;-33.706;151.094;2023-08-06T00:49:09;101521.84;;;11.84;50.92
37291;BME280;23175;-33.706;151.094;2023-08-06T00:51:39;101521.17;;;12.57;49.30
37291;BME280;23175;-33.706;151.094;2023-08-06T00:54:09;101523.68;;;11.49;51.76
37291;BME280;23175;-33.706;151.094;2023-08-06T00:56:40;101518.53;;;10.06;54.00
37291;BME280;23175;-33.706;151.094;2023-08-06T00:59:12;101520.84;;;11.96;51.67
37291;BME280;23175;-33.706;151.094;2023-08-06T01:01:43;101518.58;;;11.70;51.44
37291;BME280;23175;-33.706;151.094;2023-08-06T01:04:14;101512.90;;;13.07;49.10
37291;BME280;23175;-33.706;151.094;2023-08-06T01:06:48;101515.61;;;10.72;52.19
37291;BME280;23175;-33.706;151.094;2023-08-06T01:09:30;101512.50;;;12.92;48.20
37291;BME280;23175;-33.706;151.094;2023-08-06T01:12:14;101513.67;;;10.41;53.06
37291;BME280;23175;-33.706;151.094;2023-08-06T01:14:56;101513.50;;;10.65;52.96
37291;BME280;23175;-33.706;151.094;2023-08-06T01:17:28;101505.45;;;14.12;47.26
37291;BME280;23175;-33.706;151.094;2023-08-06T01:19:59;101504.52;;;13.29;48.37
37291;BME280;23175;-33.706;151.094;2023-08-06T01:22:34;101499.12;;;13.10;48.25
37291;BME280;23175;-33.706;151.094;2023-08-06T01:25:05;101497.79;;;14.09;46.89
37291;BME280;23175;-33.706;151.094;2023-08-06T01:27:40;101493.46;;;12.25;49.65
37291;BME280;23175;-33.706;151.094;2023-08-06T01:30:17;101483.19;;;14.56;46.34
37291;BME280;23175;-33.706;151.094;2023-08-06T01:32:53;101483.55;;;11.54;50.61
37291;BME280;23175;-33.706;151.094;2023-08-06T01:35:27;101480.84;;;12.37;49.06
37291;BME280;23175;-33.706;151.094;2023-08-06T01:37:57;101479.80;;;13.84;46.25
37291;BME280;23175;-33.706;151.094;2023-08-06T01:40:27;101472.88;;;14.04;46.65
37291;BME280;23175;-33.706;151.094;2023-08-06T01:42:57;101471.87;;;14.17;47.47
37291;BME280;23175;-33.706;151.094;2023-08-06T01:45:27;101466.93;;;13.36;47.16
37291;BME280;23175;-33.706;151.094;2023-08-06T01:47:57;101464.89;;;13.22;47.29
37291;BME280;23175;-33.706;151.094;2023-08-06T01:50:27;101465.23;;;11.29;51.48
37291;BME280;23175;-33.706;151.094;2023-08-06T01:52:57;101456.75;;;15.19;45.07
37291;BME280;23175;-33.706;151.094;2023-08-06T01:55:27;101456.68;;;11.47;50.71
37291;BME280;23175;-33.706;151.094;2023-08-06T01:57:58;101448.12;;;13.21;48.00
37291;BME280;23175;-33.706;151.094;2023-08-06T02:00:28;101448.28;;;15.54;44.53
37291;BME280;23175;-33.706;151.094;2023-08-06T02:02:58;101444.71;;;13.03;47.87
37291;BME280;23175;-33.706;151.094;2023-08-06T02:05:28;101441.89;;;12.80;48.03
37291;BME280;23175;-33.706;151.094;2023-08-06T02:07:58;101436.87;;;11.82;49.28
37291;BME280;23175;-33.706;151.094;2023-08-06T02:10:28;101432.34;;;11.86;49.71
37291;BME280;23175;-33.706;151.094;2023-08-06T02:12:58;101431.68;;;12.64;49.03
37291;BME280;23175;-33.706;151.094;2023-08-06T02:15:28;101419.87;;;14.57;45.61
37291;BME280;23175;-33.706;151.094;2023-08-06T02:17:59;101416.20;;;13.10;46.38
37291;BME280;23175;-33.706;151.094;2023-08-06T02:20:29;101410.33;;;13.44;44.75
37291;BME280;23175;-33.706;151.094;2023-08-06T02:23:00;101418.40;;;9.83;50.20
37291;BME280;23175;-33.706;151.094;2023-08-06T02:25:30;101411.00;;;12.42;47.57
37291;BME280;23175;-33.706;151.094;2023-08-06T02:28:00;101404.42;;;12.64;46.60
37291;BME280;23175;-33.706;151.094;2023-08-06T02:30:30;101403.94;;;12.05;48.40
37291;BME280;23175;-33.706;151.094;2023-08-06T02:33:00;101396.18;;;13.33;45.92
37291;BME280;23175;-33.706;151.094;2023-08-06T02:35:29;101395.45;;;14.51;43.86
37291;BME280;23175;-33.706;151.094;2023-08-06T02:37:59;101398.70;;;12.29;47.51
37291;BME280;23175;-33.706;151.094;2023-08-06T02:40:29;101393.29;;;13.36;45.21
37291;BME280;23175;-33.706;151.094;2023-08-06T02:42:59;101390.88;;;13.38;44.44
37291;BME280;23175;-33.706;151.094;2023-08-06T02:45:30;101394.67;;;10.72;48.27
37291;BME280;23175;-33.706;151.094;2023-08-06T02:47:59;101390.69;;;12.38;47.79
37291;BME280;23175;-33.706;151.094;2023-08-06T02:50:30;101383.84;;;15.21;43.89
37291;BME280;23175;-33.706;151.094;2023-08-06T02:53:00;101379.66;;;13.80;45.56
37291;BME280;23175;-33.706;151.094;2023-08-06T02:55:30;101378.78;;;12.00;48.42
37291;BME280;23175;-33.706;151.094;2023-08-06T02:58:00;101375.15;;;13.92;45.55
37291;BME280;23175;-33.706;151.094;2023-08-06T03:00:31;101373.38;;;14.20;46.07
37291;BME280;23175;-33.706;151.094;2023-08-06T03:03:00;101371.99;;;9.48;52.23
37291;BME280;23175;-33.706;151.094;2023-08-06T03:05:31;101363.76;;;11.66;46.87
37291;BME280;23175;-33.706;151.094;2023-08-06T03:08:01;101361.85;;;12.57;46.76
37291;BME280;23175;-33.706;151.094;2023-08-06T03:10:31;101361.34;;;15.18;44.23
37291;BME280;23175;-33.706;151.094;2023-08-06T03:13:00;101356.31;;;13.03;45.82
37291;BME280;23175;-33.706;151.094;2023-08-06T03:15:30;101358.83;;;14.91;43.57
37291;BME280;23175;-33.706;151.094;2023-08-06T03:18:00;101356.33;;;12.57;46.85
37291;BME280;23175;-33.706;151.094;2023-08-06T03:20:30;101355.13;;;13.25;46.22
37291;BME280;23175;-33.706;151.094;2023-08-06T03:23:01;101352.24;;;14.42;43.60
37291;BME280;23175;-33.706;151.094;2023-08-06T03:25:31;101354.02;;;10.38;50.74
37291;BME280;23175;-33.706;151.094;2023-08-06T03:28:01;101356.21;;;10.03;51.17
37291;BME280;23175;-33.706;151.094;2023-08-06T03:30:31;101348.94;;;13.99;46.25
37291;BME280;23175;-33.706;151.094;2023-08-06T03:33:01;101346.20;;;13.25;46.56
37291;BME280;23175;-33.706;151.094;2023-08-06T03:35:31;101341.61;;;13.00;47.49
37291;BME280;23175;-33.706;151.094;2023-08-06T03:38:01;101341.74;;;13.30;47.26
37291;BME280;23175;-33.706;151.094;2023-08-06T03:40:31;101338.33;;;14.16;45.41
37291;BME280;23175;-33.706;151.094;2023-08-06T03:43:01;101336.74;;;13.67;46.69
37291;BME280;23175;-33.706;151.094;2023-08-06T03:45:31;101337.38;;;14.09;45.45
37291;BME280;23175;-33.706;151.094;2023-08-06T03:48:01;101339.43;;;12.86;47.05
37291;BME280;23175;-33.706;151.094;2023-08-06T03:50:31;101342.58;;;10.15;51.40
37291;BME280;23175;-33.706;151.094;2023-08-06T03:53:01;101336.77;;;13.35;47.41
37291;BME280;23175;-33.706;151.094;2023-08-06T03:55:31;101333.32;;;14.26;45.49
37291;BME280;23175;-33.706;151.094;2023-08-06T03:58:02;101334.59;;;12.39;48.38
37291;BME280;23175;-33.706;151.094;2023-08-06T04:00:32;101332.17;;;11.88;48.37
37291;BME280;23175;-33.706;151.094;2023-08-06T04:03:02;101339.21;;;11.14;51.15
37291;BME280;23175;-33.706;151.094;2023-08-06T04:05:33;101337.50;;;11.22;49.82
37291;BME280;23175;-33.706;151.094;2023-08-06T04:08:04;101331.11;;;12.65;47.65
37291;BME280;23175;-33.706;151.094;2023-08-06T04:10:33;101334.36;;;10.51;50.48
37291;BME280;23175;-33.706;151.094;2023-08-06T04:13:03;101331.90;;;12.80;46.82
37291;BME280;23175;-33.706;151.094;2023-08-06T04:15:35;101328.82;;;13.00;46.36
37291;BME280;23175;-33.706;151.094;2023-08-06T04:18:06;101333.88;;;12.71;47.89
37291;BME280;23175;-33.706;151.094;2023-08-06T04:20:36;101332.97;;;12.73;47.49
37291;BME280;23175;-33.706;151.094;2023-08-06T04:23:17;101334.58;;;11.35;48.93
37291;BME280;23175;-33.706;151.094;2023-08-06T04:25:47;101333.85;;;11.76;48.28
37291;BME280;23175;-33.706;151.094;2023-08-06T04:28:17;101335.68;;;13.82;46.28
37291;BME280;23175;-33.706;151.094;2023-08-06T04:30:47;101337.17;;;10.25;50.17
37291;BME280;23175;-33.706;151.094;2023-08-06T04:33:16;101339.01;;;13.49;46.44
37291;BME280;23175;-33.706;151.094;2023-08-06T04:35:47;101338.16;;;12.10;48.61
37291;BME280;23175;-33.706;151.094;2023-08-06T04:38:22;101338.94;;;12.09;48.81
37291;BME280;23175;-33.706;151.094;2023-08-06T04:40:52;101338.40;;;13.40;46.21
37291;BME280;23175;-33.706;151.094;2023-08-06T04:43:23;101341.68;;;13.30;45.43
37291;BME280;23175;-33.706;151.094;2023-08-06T04:45:57;101339.10;;;15.68;42.74
37291;BME280;23175;-33.706;151.094;2023-08-06T04:48:27;101340.69;;;11.04;49.44
37291;BME280;23175;-33.706;151.094;2023-08-06T04:50:57;101341.47;;;11.62;49.33
37291;BME280;23175;-33.706;151.094;2023-08-06T04:53:27;101335.42;;;14.51;44.84
37291;BME280;23175;-33.706;151.094;2023-08-06T04:55:57;101337.18;;;13.12;46.88
37291;BME280;23175;-33.706;151.094;2023-08-06T04:58:27;101337.17;;;13.39;45.91
37291;BME280;23175;-33.706;151.094;2023-08-06T05:00:58;101340.63;;;15.03;45.36
37291;BME280;23175;-33.706;151.094;2023-08-06T05:03:28;101339.12;;;14.43;44.42
37291;BME280;23175;-33.706;151.094;2023-08-06T05:05:58;101340.36;;;14.69;44.02
37291;BME280;23175;-33.706;151.094;2023-08-06T05:08:27;101336.01;;;14.73;43.03
37291;BME280;23175;-33.706;151.094;2023-08-06T05:10:57;101332.53;;;11.39;47.80
37291;BME280;23175;-33.706;151.094;2023-08-06T05:13:27;101330.78;;;13.70;45.28
37291;BME280;23175;-33.706;151.094;2023-08-06T05:15:57;101329.70;;;13.37;46.55
37291;BME280;23175;-33.706;151.094;2023-08-06T05:18:28;101329.83;;;12.40;46.63
37291;BME280;23175;-33.706;151.094;2023-08-06T05:20:57;101332.62;;;13.17;45.37
37291;BME280;23175;-33.706;151.094;2023-08-06T05:23:27;101335.20;;;10.42;49.25
37291;BME280;23175;-33.706;151.094;2023-08-06T05:25:58;101334.49;;;12.64;46.27
37291;BME280;23175;-33.706;151.094;2023-08-06T05:28:27;101334.11;;;13.43;44.54
37291;BME280;23175;-33.706;151.094;2023-08-06T05:30:57;101335.80;;;10.61;49.54
37291;BME280;23175;-33.706;151.094;2023-08-06T05:33:27;101335.94;;;11.89;47.91
37291;BME280;23175;-33.706;151.094;2023-08-06T05:35:57;101338.24;;;9.87;50.94
37291;BME280;23175;-33.706;151.094;2023-08-06T05:38:26;101335.97;;;10.06;51.14
37291;BME280;23175;-33.706;151.094;2023-08-06T05:40:56;101334.34;;;10.95;50.00
37291;BME280;23175;-33.706;151.094;2023-08-06T05:43:26;101329.96;;;11.75;48.12
37291;BME280;23175;-33.706;151.094;2023-08-06T05:45:56;101331.52;;;12.64;47.63
37291;BME280;23175;-33.706;151.094;2023-08-06T05:48:25;101328.59;;;12.50;47.34
37291;BME280;23175;-33.706;151.094;2023-08-06T05:50:55;101330.99;;;13.81;45.46
37291;BME280;23175;-33.706;151.094;2023-08-06T05:53:25;101335.67;;;12.93;46.43
37291;BME280;23175;-33.706;151.094;2023-08-06T05:55:55;101339.84;;;13.76;45.10
37291;BME280;23175;-33.706;151.094;2023-08-06T05:58:25;101337.79;;;11.52;46.92
37291;BME280;23175;-33.706;151.094;2023-08-06T06:00:56;101337.76;;;11.93;48.01
37291;BME280;23175;-33.706;151.094;2023-08-06T06:03:26;101337.01;;;12.23;46.84
37291;BME280;23175;-33.706;151.094;2023-08-06T06:05:56;101332.64;;;13.97;43.75
37291;BME280;23175;-33.706;151.094;2023-08-06T06:08:26;101340.04;;;11.70;47.65
37291;BME280;23175;-33.706;151.094;2023-08-06T06:10:56;101339.76;;;13.19;45.05
37291;BME280;23175;-33.706;151.094;2023-08-06T06:13:27;101337.69;;;14.94;42.34
37291;BME280;23175;-33.706;151.094;2023-08-06T06:15:57;101336.72;;;14.69;42.59
37291;BME280;23175;-33.706;151.094;2023-08-06T06:18:27;101338.78;;;10.35;49.23
37291;BME280;23175;-33.706;151.094;2023-08-06T06:20:57;101338.25;;;13.36;44.09
37291;BME280;23175;-33.706;151.094;2023-08-06T06:23:27;101345.60;;;13.87;42.95
37291;BME280;23175;-33.706;151.094;2023-08-06T06:25:59;101349.73;;;13.77;43.67
37291;BME280;23175;-33.706;151.094;2023-08-06T06:28:29;101350.80;;;14.34;42.65
37291;BME280;23175;-33.706;151.094;2023-08-06T06:31:02;101354.90;;;14.00;43.76
37291;BME280;23175;-33.706;151.094;2023-08-06T06:33:33;101357.12;;;14.88;41.63
37291;BME280;23175;-33.706;151.094;2023-08-06T06:36:03;101362.61;;;13.78;43.32
37291;BME280;23175;-33.706;151.094;2023-08-06T06:38:33;101367.11;;;13.53;42.42
37291;BME280;23175;-33.706;151.094;2023-08-06T06:41:03;101373.52;;;11.16;46.23
37291;BME280;23175;-33.706;151.094;2023-08-06T06:43:33;101368.55;;;11.77;45.19
37291;BME280;23175;-33.706;151.094;2023-08-06T06:46:03;101370.87;;;13.20;43.75
37291;BME280;23175;-33.706;151.094;2023-08-06T06:48:34;101370.95;;;11.13;47.25
37291;BME280;23175;-33.706;151.094;2023-08-06T06:51:04;101363.69;;;13.27;43.64
37291;BME280;23175;-33.706;151.094;2023-08-06T06:53:34;101363.93;;;13.29;43.43
37291;BME280;23175;-33.706;151.094;2023-08-06T06:56:05;101364.18;;;12.84;44.40
37291;BME280;23175;-33.706;151.094;2023-08-06T06:58:35;101366.39;;;12.74;43.57
37291;BME280;23175;-33.706;151.094;2023-08-06T07:01:05;101362.71;;;14.16;42.35
37291;BME280;23175;-33.706;151.094;2023-08-06T07:03:35;101360.68;;;14.18;43.18
37291;BME280;23175;-33.706;151.094;2023-08-06T07:06:05;101364.73;;;13.73;43.28
37291;BME280;23175;-33.706;151.094;2023-08-06T07:08:34;101369.29;;;15.03;40.62
37291;BME280;23175;-33.706;151.094;2023-08-06T07:11:06;101367.86;;;14.65;40.69
37291;BME280;23175;-33.706;151.094;2023-08-06T07:13:36;101371.32;;;15.28;40.18
37291;BME280;23175;-33.706;151.094;2023-08-06T07:16:06;101367.44;;;13.18;43.26
37291;BME280;23175;-33.706;151.094;2023-08-06T07:18:36;101370.76;;;13.07;43.45
37291;BME280;23175;-33.706;151.094;2023-08-06T07:21:06;101373.30;;;13.16;42.96
37291;BME280;23175;-33.706;151.094;2023-08-06T07:23:36;101376.29;;;15.20;40.31
37291;BME280;23175;-33.706;151.094;2023-08-06T07:26:06;101376.19;;;16.30;39.17
37291;BME280;23175;-33.706;151.094;2023-08-06T07:28:36;101381.44;;;15.56;39.79
37291;BME280;23175;-33.706;151.094;2023-08-06T07:31:06;101384.75;;;16.34;39.48
37291;BME280;23175;-33.706;151.094;2023-08-06T07:33:36;101385.42;;;16.72;38.66
37291;BME280;23175;-33.706;151.094;2023-08-06T07:36:13;101386.77;;;16.26;39.04
37291;BME280;23175;-33.706;151.094;2023-08-06T07:38:43;101386.24;;;16.22;39.03
37291;BME280;23175;-33.706;151.094;2023-08-06T07:41:13;101385.77;;;16.69;39.47
37291;BME280;23175;-33.706;151.094;2023-08-06T07:43:43;101386.63;;;15.92;39.72
37291;BME280;23175;-33.706;151.094;2023-08-06T07:46:18;101388.30;;;16.18;39.57
37291;BME280;23175;-33.706;151.094;2023-08-06T07:48:48;101389.25;;;15.79;40.04
37291;BME280;23175;-33.706;151.094;2023-08-06T07:51:18;101388.99;;;15.36;40.28
37291;BME280;23175;-33.706;151.094;2023-08-06T07:53:47;101387.76;;;16.17;40.37
37291;BME280;23175;-33.706;151.094;2023-08-06T07:56:17;101389.03;;;16.25;40.33
37291;BME280;23175;-33.706;151.094;2023-08-06T07:58:47;101389.79;;;16.16;40.47
37291;BME280;23175;-33.706;151.094;2023-08-06T08:01:16;101389.43;;;15.83;40.55
37291;BME280;23175;-33.706;151.094;2023-08-06T08:03:46;101385.69;;;15.91;40.79
37291;BME280;23175;-33.706;151.094;2023-08-06T08:06:16;101383.57;;;16.17;40.83
37291;BME280;23175;-33.706;151.094;2023-08-06T08:08:47;101385.77;;;15.55;41.01
37291;BME280;23175;-33.706;151.094;2023-08-06T08:11:17;101386.58;;;15.56;40.84
37291;BME280;23175;-33.706;151.094;2023-08-06T08:13:48;101387.59;;;15.38;41.24
37291;BME280;23175;-33.706;151.094;2023-08-06T08:16:17;101389.30;;;15.28;41.63
37291;BME280;23175;-33.706;151.094;2023-08-06T08:18:47;101389.98;;;15.01;41.55
37291;BME280;23175;-33.706;151.094;2023-08-06T08:21:18;101391.42;;;15.42;41.65
37291;BME280;23175;-33.706;151.094;2023-08-06T08:23:48;101393.02;;;15.35;42.11
37291;BME280;23175;-33.706;151.094;2023-08-06T08:26:19;101396.03;;;13.22;43.89
37291;BME280;23175;-33.706;151.094;2023-08-06T08:28:49;101399.18;;;15.17;42.58
37291;BME280;23175;-33.706;151.094;2023-08-06T08:31:18;101403.50;;;15.19;42.44
37291;BME280;23175;-33.706;151.094;2023-08-06T08:33:49;101405.55;;;15.53;42.25
37291;BME280;23175;-33.706;151.094;2023-08-06T08:36:18;101405.33;;;14.48;42.44
37291;BME280;23175;-33.706;151.094;2023-08-06T08:38:48;101407.23;;;14.67;42.55
37291;BME280;23175;-33.706;151.094;2023-08-06T08:41:19;101403.35;;;13.95;42.89
37291;BME280;23175;-33.706;151.094;2023-08-06T08:43:50;101408.25;;;14.80;42.88
37291;BME280;23175;-33.706;151.094;2023-08-06T08:46:21;101407.27;;;14.60;42.63
37291;BME280;23175;-33.706;151.094;2023-08-06T08:48:50;101410.32;;;14.23;42.44
37291;BME280;23175;-33.706;151.094;2023-08-06T08:51:20;101406.86;;;14.83;41.76
37291;BME280;23175;-33.706;151.094;2023-08-06T08:53:51;101410.86;;;14.77;41.75
37291;BME280;23175;-33.706;151.094;2023-08-06T08:56:23;101412.97;;;14.21;42.66
37291;BME280;23175;-33.706;151.094;2023-08-06T08:58:53;101413.94;;;14.10;42.92
37291;BME280;23175;-33.706;151.094;2023-08-06T09:01:29;101413.41;;;14.12;43.05
37291;BME280;23175;-33.706;151.094;2023-08-06T09:04:00;101416.34;;;13.91;43.36
37291;BME280;23175;-33.706;151.094;2023-08-06T09:06:31;101415.27;;;14.01;43.20
37291;BME280;23175;-33.706;151.094;2023-08-06T09:09:20;101413.94;;;14.40;43.07
37291;BME280;23175;-33.706;151.094;2023-08-06T09:11:51;101410.24;;;14.27;42.99
37291;BME280;23175;-33.706;151.094;2023-08-06T09:14:23;101411.54;;;14.02;43.32
37291;BME280;23175;-33.706;151.094;2023-08-06T09:16:53;101415.22;;;13.83;43.65
37291;BME280;23175;-33.706;151.094;2023-08-06T09:19:24;101414.15;;;14.02;43.05
37291;BME280;23175;-33.706;151.094;2023-08-06T09:21:55;101416.52;;;13.62;43.54
37291;BME280;23175;-33.706;151.094;2023-08-06T09:24:25;101418.55;;;13.63;43.59
37291;BME280;23175;-33.706;151.094;2023-08-06T09:26:56;101420.72;;;13.73;43.66
37291;BME280;23175;-33.706;151.094;2023-08-06T09:29:26;101419.64;;;14.08;43.26
37291;BME280;23175;-33.706;151.094;2023-08-06T09:32:00;101417.88;;;14.46;42.99
37291;BME280;23175;-33.706;151.094;2023-08-06T09:34:31;101413.77;;;14.01;43.21
37291;BME280;23175;-33.706;151.094;2023-08-06T09:37:01;101415.53;;;14.41;44.05
37291;BME280;23175;-33.706;151.094;2023-08-06T09:39:33;101412.55;;;14.17;43.85
37291;BME280;23175;-33.706;151.094;2023-08-06T09:42:03;101410.29;;;14.10;43.22
37291;BME280;23175;-33.706;151.094;2023-08-06T09:44:34;101416.95;;;13.88;43.18
37291;BME280;23175;-33.706;151.094;2023-08-06T09:47:04;101419.65;;;13.77;43.19
37291;BME280;23175;-33.706;151.094;2023-08-06T09:49:43;101422.55;;;13.66;44.09
37291;BME280;23175;-33.706;151.094;2023-08-06T09:52:14;101426.41;;;13.97;44.46
37291;BME280;23175;-33.706;151.094;2023-08-06T09:54:45;101429.73;;;13.28;44.00
37291;BME280;23175;-33.706;151.094;2023-08-06T09:57:17;101430.35;;;13.31;44.39
37291;BME280;23175;-33.706;151.094;2023-08-06T09:59:47;101428.58;;;14.33;43.54
37291;BME280;23175;-33.706;151.094;2023-08-06T10:02:18;101427.03;;;13.47;43.76
37291;BME280;23175;-33.706;151.094;2023-08-06T10:04:49;101428.48;;;14.20;43.84
37291;BME280;23175;-33.706;151.094;2023-08-06T10:07:20;101429.70;;;13.78;43.58
37291;BME280;23175;-33.706;151.094;2023-08-06T10:09:51;101431.70;;;13.23;45.51
37291;BME280;23175;-33.706;151.094;2023-08-06T10:12:21;101432.66;;;13.53;44.51
37291;BME280;23175;-33.706;151.094;2023-08-06T10:14:53;101431.84;;;13.58;44.14
37291;BME280;23175;-33.706;151.094;2023-08-06T10:17:24;101430.04;;;14.33;43.89
37291;BME280;23175;-33.706;151.094;2023-08-06T10:19:54;101429.33;;;14.14;44.01
37291;BME280;23175;-33.706;151.094;2023-08-06T10:22:24;101431.23;;;13.83;43.62
37291;BME280;23175;-33.706;151.094;2023-08-06T10:24:57;101427.91;;;13.83;44.64
37291;BME280;23175;-33.706;151.094;2023-08-06T10:27:32;101427.80;;;13.82;44.60
37291;BME280;23175;-33.706;151.094;2023-08-06T10:30:43;101427.38;;;13.94;44.23
37291;BME280;23175;-33.706;151.094;2023-08-06T10:33:14;101425.70;;;14.27;44.38
37291;BME280;23175;-33.706;151.094;2023-08-06T10:35:44;101421.25;;;14.26;44.13
37291;BME280;23175;-33.706;151.094;2023-08-06T10:38:17;101419.68;;;13.91;44.68
37291;BME280;23175;-33.706;151.094;2023-08-06T10:40:52;101413.27;;;13.98;44.42
37291;BME280;23175;-33.706;151.094;2023-08-06T10:43:31;101415.06;;;14.19;44.44
37291;BME280;23175;-33.706;151.094;2023-08-06T10:46:03;101415.43;;;14.17;44.48
37291;BME280;23175;-33.706;151.094;2023-08-06T10:48:36;101416.38;;;13.89;44.90
37291;BME280;23175;-33.706;151.094;2023-08-06T10:51:09;101413.32;;;14.02;44.68
37291;BME280;23175;-33.706;151.094;2023-08-06T10:53:43;101416.02;;;14.11;44.11
37291;BME280;23175;-33.706;151.094;2023-08-06T10:56:16;101415.53;;;14.17;44.47
37291;BME280;23175;-33.706;151.094;2023-08-06T10:58:49;101414.82;;;14.26;44.23
37291;BME280;23175;-33.706;151.094;2023-08-06T11:01:19;101414.05;;;14.19;44.24
37291;BME280;23175;-33.706;151.094;2023-08-06T11:03:51;101417.82;;;14.29;44.65
37291;BME280;23175;-33.706;151.094;2023-08-06T11:06:23;101415.67;;;14.34;44.14
37291;BME280;23175;-33.706;151.094;2023-08-06T11:08:53;101412.51;;;14.07;44.49
37291;BME280;23175;-33.706;151.094;2023-08-06T11:11:25;101412.18;;;14.42;43.92
37291;BME280;23175;-33.706;151.094;2023-08-06T11:13:55;101411.41;;;14.24;44.31
37291;BME280;23175;-33.706;151.094;2023-08-06T11:16:26;101411.17;;;14.34;44.18
37291;BME280;23175;-33.706;151.094;2023-08-06T11:18:56;101410.25;;;14.21;44.42
37291;BME280;23175;-33.706;151.094;2023-08-06T11:21:30;101410.66;;;13.83;44.51
37291;BME280;23175;-33.706;151.094;2023-08-06T11:24:00;101410.99;;;14.08;44.46
37291;BME280;23175;-33.706;151.094;2023-08-06T11:26:30;101408.90;;;14.10;44.42
37291;BME280;23175;-33.706;151.094;2023-08-06T11:29:01;101407.19;;;13.97;44.54
37291;BME280;23175;-33.706;151.094;2023-08-06T11:31:31;101404.08;;;13.86;44.61
37291;BME280;23175;-33.706;151.094;2023-08-06T11:34:01;101402.34;;;13.80;44.63
37291;BME280;23175;-33.706;151.094;2023-08-06T11:36:32;101403.39;;;14.14;44.67
37291;BME280;23175;-33.706;151.094;2023-08-06T11:39:03;101404.73;;;13.64;44.73
37291;BME280;23175;-33.706;151.094;2023-08-06T11:41:33;101405.01;;;13.77;44.63
37291;BME280;23175;-33.706;151.094;2023-08-06T11:44:04;101400.49;;;13.35;45.12
37291;BME280;23175;-33.706;151.094;2023-08-06T11:46:52;101401.20;;;13.57;44.99
37291;BME280;23175;-33.706;151.094;2023-08-06T11:49:37;101400.90;;;13.62;44.92
37291;BME280;23175;-33.706;151.094;2023-08-06T11:52:15;101401.24;;;13.92;44.84
37291;BME280;23175;-33.706;151.094;2023-08-06T11:54:46;101395.95;;;13.41;45.05
37291;BME280;23175;-33.706;151.094;2023-08-06T11:57:17;101391.36;;;13.73;44.83
37291;BME280;23175;-33.706;151.094;2023-08-06T11:59:47;101390.45;;;13.22;44.94
37291;BME280;23175;-33.706;151.094;2023-08-06T12:02:22;101387.28;;;13.17;45.40
37291;BME280;23175;-33.706;151.094;2023-08-06T12:05:09;101386.00;;;13.37;45.03
37291;BME280;23175;-33.706;151.094;2023-08-06T12:07:42;101384.96;;;13.30;45.59
37291;BME280;23175;-33.706;151.094;2023-08-06T12:10:15;101386.63;;;13.39;45.37
37291;BME280;23175;-33.706;151.094;2023-08-06T12:12:45;101383.86;;;13.42;45.32
37291;BME280;23175;-33.706;151.094;2023-08-06T12:15:15;101386.76;;;13.62;44.94
37291;BME280;23175;-33.706;151.094;2023-08-06T12:17:46;101386.30;;;13.46;45.18
37291;BME280;23175;-33.706;151.094;2023-08-06T12:20:16;101386.89;;;13.57;44.91
37291;BME280;23175;-33.706;151.094;2023-08-06T12:22:46;101386.88;;;13.10;45.56
37291;BME280;23175;-33.706;151.094;2023-08-06T12:25:16;101389.20;;;13.27;44.99
37291;BME280;23175;-33.706;151.094;2023-08-06T12:27:48;101388.40;;;13.16;45.13
37291;BME280;23175;-33.706;151.094;2023-08-06T12:30:18;101391.16;;;12.10;45.62
37291;BME280;23175;-33.706;151.094;2023-08-06T12:32:50;101395.29;;;13.01;45.56
37291;BME280;23175;-33.706;151.094;2023-08-06T12:35:19;101394.19;;;12.54;45.27
37291;BME280;23175;-33.706;151.094;2023-08-06T12:37:49;101392.72;;;12.88;45.48
37291;BME280;23175;-33.706;151.094;2023-08-06T12:40:19;101395.57;;;11.90;45.42